Time,TemperatureF,DewpointF,PressureIn,WindDirection,WindDirectionDegrees,WindSpeedMPH,WindSpeedGustMPH,Humidity,HourlyPrecipIn,Conditions,Clouds,dailyrainin,SoftwareType,DateUTC
2013-03-18 00:00:00,27.1,13.5,30.27,ESE,105,4.0,4.5,56,0.00,,---,0.00,VWS V14.01,2013-03-18 04:00:00,
2013-03-18 00:05:00,27.1,13.5,30.27,East,82,4.0,4.9,56,0.00,,---,0.00,VWS V14.01,2013-03-18 04:05:00,
2013-03-18 00:10:00,27.1,13.5,30.27,ESE,115,3.1,4.0,56,0.00,,---,0.00,VWS V14.01,2013-03-18 04:10:00,
2013-03-18 00:15:00,27.0,13.4,30.27,East,96,3.6,3.6,56,0.00,,---,0.00,VWS V14.01,2013-03-18 04:15:00,
2013-03-18 00:20:00,26.8,14.4,30.27,ESE,104,3.6,4.5,59,0.00,,---,0.00,VWS V14.01,2013-03-18 04:20:00,
2013-03-18 00:25:00,26.8,14.4,30.27,East,79,5.4,5.4,59,0.00,,---,0.00,VWS V14.01,2013-03-18 04:25:00,
2013-03-18 00:30:00,26.6,14.2,30.27,ESE,116,5.8,6.7,59,0.00,,---,0.00,VWS V14.01,2013-03-18 04:30:00,
2013-03-18 00:35:00,26.6,14.2,30.27,East,91,3.6,3.6,59,0.00,,---,0.00,VWS V14.01,2013-03-18 04:35:00,
2013-03-18 00:40:00,26.4,14.1,30.27,East,93,4.0,4.5,59,0.00,,---,0.00,VWS V14.01,2013-03-18 04:40:00,
2013-03-18 00:45:00,26.2,13.9,30.27,ESE,112,4.9,5.4,59,0.00,,---,0.00,VWS V14.01,2013-03-18 04:45:00,
2013-03-18 00:50:00,26.2,13.9,30.27,ESE,115,3.1,3.6,59,0.00,,---,0.00,VWS V14.01,2013-03-18 04:50:00,
2013-03-18 00:55:00,26.1,13.7,30.27,ESE,110,2.7,2.7,59,0.00,,---,0.00,VWS V14.01,2013-03-18 04:55:00,
2013-03-18 01:00:00,25.9,13.5,30.27,East,86,4.5,4.5,59,0.00,,---,0.00,VWS V14.01,2013-03-18 05:00:00,
2013-03-18 01:05:00,25.9,13.5,30.27,ESE,120,3.1,3.6,59,0.00,,---,0.00,VWS V14.01,2013-03-18 05:05:00,
2013-03-18 01:10:00,25.7,13.4,30.27,SE,124,0.0,0.0,59,0.00,,---,0.00,VWS V14.01,2013-03-18 05:10:00,
2013-03-18 01:15:00,25.5,13.2,30.27,East,101,4.0,4.5,59,0.00,,---,0.00,VWS V14.01,2013-03-18 05:15:00,
2013-03-18 01:20:00,25.5,13.2,30.27,ESE,108,3.1,3.6,59,0.00,,---,0.00,VWS V14.01,2013-03-18 05:20:00,
2013-03-18 01:25:00,25.3,13.0,30.27,ESE,121,0.0,0.0,59,0.00,,---,0.00,VWS V14.01,2013-03-18 05:25:00,
2013-03-18 01:30:00,25.2,12.9,30.27,SE,142,0.0,0.0,59,0.00,,---,0.00,VWS V14.01,2013-03-18 05:30:00,
2013-03-18 01:35:00,25.0,12.7,30.27,ESE,112,0.0,0.0,59,0.00,,---,0.00,VWS V14.01,2013-03-18 05:35:00,
2013-03-18 01:40:00,24.8,12.5,30.27,SSE,155,0.0,0.0,59,0.00,,---,0.00,VWS V14.01,2013-03-18 05:40:00,
2013-03-18 01:45:00,24.6,12.4,30.27,SSE,155,0.0,0.0,59,0.00,,---,0.00,VWS V14.01,2013-03-18 05:45:00,
2013-03-18 01:50:00,24.6,13.5,30.27,ESE,108,3.1,4.0,62,0.00,,---,0.00,VWS V14.01,2013-03-18 05:50:00,
2013-03-18 01:55:00,24.6,13.5,30.27,ESE,107,0.0,2.7,62,0.00,,---,0.00,VWS V14.01,2013-03-18 05:55:00,
2013-03-18 02:00:00,24.6,13.5,30.27,SE,141,3.6,4.5,62,0.00,,---,0.00,VWS V14.01,2013-03-18 06:00:00,
2013-03-18 02:05:00,24.6,13.5,30.27,SE,144,4.9,4.9,62,0.00,,---,0.00,VWS V14.01,2013-03-18 06:05:00,
2013-03-18 02:10:00,24.6,13.5,30.27,East,96,4.0,4.9,62,0.00,,---,0.00,VWS V14.01,2013-03-18 06:10:00,
2013-03-18 02:15:00,24.4,13.3,30.27,SE,138,3.1,3.1,62,0.00,,---,0.00,VWS V14.01,2013-03-18 06:15:00,
2013-03-18 02:20:00,24.4,13.3,30.27,ESE,114,3.6,4.0,62,0.00,,---,0.00,VWS V14.01,2013-03-18 06:20:00,
2013-03-18 02:25:00,24.3,13.1,30.27,ESE,120,0.0,0.0,62,0.00,,---,0.00,VWS V14.01,2013-03-18 06:25:00,
2013-03-18 02:30:00,24.1,13.0,30.27,SE,137,0.0,0.0,62,0.00,,---,0.00,VWS V14.01,2013-03-18 06:30:00,
2013-03-18 02:35:00,24.1,13.0,30.27,SSE,147,0.0,0.0,62,0.00,,---,0.00,VWS V14.01,2013-03-18 06:35:00,
2013-03-18 02:40:00,23.9,12.8,30.30,SSE,147,0.0,0.0,62,0.00,,---,0.00,VWS V14.01,2013-03-18 06:40:00,
2013-03-18 02:45:00,23.9,12.8,30.30,SE,126,3.1,3.6,62,0.00,,---,0.00,VWS V14.01,2013-03-18 06:45:00,
2013-03-18 02:50:00,23.9,13.1,30.30,SE,126,0.0,0.0,63,0.00,,---,0.00,VWS V14.01,2013-03-18 06:50:00,
2013-03-18 02:55:00,23.9,13.1,30.30,East,98,0.0,0.0,63,0.00,,---,0.00,VWS V14.01,2013-03-18 06:55:00,
2013-03-18 03:00:00,23.7,13.0,30.30,ESE,118,0.0,0.0,63,0.00,,---,0.00,VWS V14.01,2013-03-18 07:00:00,
2013-03-18 03:05:00,23.7,13.0,30.30,ENE,68,0.0,0.0,63,0.00,,---,0.00,VWS V14.01,2013-03-18 07:05:00,
2013-03-18 03:10:00,23.5,12.8,30.30,ESE,120,3.1,3.1,63,0.00,,---,0.00,VWS V14.01,2013-03-18 07:10:00,
2013-03-18 03:15:00,23.4,12.6,30.30,SE,134,0.0,0.0,63,0.00,,---,0.00,VWS V14.01,2013-03-18 07:15:00,
2013-03-18 03:20:00,23.2,12.1,30.30,SE,134,0.0,0.0,62,0.00,,---,0.00,VWS V14.01,2013-03-18 07:20:00,
2013-03-18 03:25:00,23.2,12.1,30.30,SE,134,0.0,0.0,62,0.00,,---,0.00,VWS V14.01,2013-03-18 07:25:00,
2013-03-18 03:30:00,23.0,11.9,30.30,SE,134,0.0,0.0,62,0.00,,---,0.00,VWS V14.01,2013-03-18 07:30:00,
2013-03-18 03:35:00,22.8,11.8,30.30,SE,134,0.0,0.0,62,0.00,,---,0.00,VWS V14.01,2013-03-18 07:35:00,
2013-03-18 03:40:00,22.6,11.6,30.30,SE,134,0.0,0.0,62,0.00,,---,0.00,VWS V14.01,2013-03-18 07:40:00,
2013-03-18 03:45:00,22.5,11.4,30.30,SE,134,0.0,0.0,62,0.00,,---,0.00,VWS V14.01,2013-03-18 07:45:00,
2013-03-18 03:50:00,22.3,11.2,30.30,SE,133,0.0,0.0,62,0.00,,---,0.00,VWS V14.01,2013-03-18 07:50:00,
2013-03-18 03:55:00,22.1,11.1,30.30,SE,133,0.0,0.0,62,0.00,,---,0.00,VWS V14.01,2013-03-18 07:55:00,
2013-03-18 04:00:00,22.1,11.4,30.30,SE,133,0.0,0.0,63,0.00,,---,0.00,VWS V14.01,2013-03-18 08:00:00,
2013-03-18 04:05:00,21.9,11.3,30.30,SE,133,0.0,0.0,63,0.00,,---,0.00,VWS V14.01,2013-03-18 08:05:00,
2013-03-18 04:10:00,21.7,11.1,30.30,SE,133,0.0,0.0,63,0.00,,---,0.00,VWS V14.01,2013-03-18 08:10:00,
2013-03-18 04:15:00,21.7,11.1,30.30,SE,134,0.0,0.0,63,0.00,,---,0.00,VWS V14.01,2013-03-18 08:15:00,
2013-03-18 04:20:00,21.7,11.1,30.30,SE,133,0.0,0.0,63,0.00,,---,0.00,VWS V14.01,2013-03-18 08:20:00,
2013-03-18 04:25:00,21.7,11.1,30.30,SE,134,0.0,0.0,63,0.00,,---,0.00,VWS V14.01,2013-03-18 08:25:00,
2013-03-18 04:30:00,21.7,11.1,30.30,SE,133,0.0,0.0,63,0.00,,---,0.00,VWS V14.01,2013-03-18 08:30:00,
2013-03-18 04:35:00,21.7,11.1,30.30,SE,133,0.0,0.0,63,0.00,,---,0.00,VWS V14.01,2013-03-18 08:35:00,
2013-03-18 04:40:00,21.7,11.1,30.30,SE,134,0.0,0.0,63,0.00,,---,0.00,VWS V14.01,2013-03-18 08:40:00,
2013-03-18 04:45:00,21.7,11.1,30.30,SE,134,0.0,0.0,63,0.00,,---,0.00,VWS V14.01,2013-03-18 08:45:00,
2013-03-18 04:50:00,21.7,11.1,30.30,SE,133,0.0,0.0,63,0.00,,---,0.00,VWS V14.01,2013-03-18 08:50:00,
2013-03-18 04:55:00,21.7,11.1,30.30,SE,133,0.0,0.0,63,0.00,,---,0.00,VWS V14.01,2013-03-18 08:55:00,
2013-03-18 05:00:00,21.7,11.4,30.30,SE,134,0.0,0.0,64,0.00,,---,0.00,VWS V14.01,2013-03-18 09:00:00,
2013-03-18 05:05:00,21.7,11.4,30.30,SE,134,0.0,0.0,64,0.00,,---,0.00,VWS V14.01,2013-03-18 09:05:00,
2013-03-18 05:10:00,21.7,11.4,30.30,SE,133,0.0,0.0,64,0.00,,---,0.00,VWS V14.01,2013-03-18 09:10:00,
2013-03-18 05:15:00,21.7,11.4,30.30,SE,133,0.0,0.0,64,0.00,,---,0.00,VWS V14.01,2013-03-18 09:15:00,
2013-03-18 05:20:00,21.7,11.4,30.30,SE,134,0.0,0.0,64,0.00,,---,0.00,VWS V14.01,2013-03-18 09:20:00,
2013-03-18 05:25:00,21.7,11.4,30.30,SE,134,0.0,0.0,64,0.00,,---,0.00,VWS V14.01,2013-03-18 09:25:00,
2013-03-18 05:30:00,21.7,11.4,30.30,SE,134,0.0,0.0,64,0.00,,---,0.00,VWS V14.01,2013-03-18 09:30:00,
2013-03-18 05:35:00,21.7,11.4,30.30,SE,133,0.0,0.0,64,0.00,,---,0.00,VWS V14.01,2013-03-18 09:35:00,
2013-03-18 05:40:00,21.7,11.4,30.30,SE,133,0.0,0.0,64,0.00,,---,0.00,VWS V14.01,2013-03-18 09:40:00,
2013-03-18 05:45:00,21.7,11.4,30.30,SE,133,0.0,0.0,64,0.00,,---,0.00,VWS V14.01,2013-03-18 09:45:00,
2013-03-18 05:50:00,21.9,11.6,30.30,SE,133,0.0,0.0,64,0.00,,---,0.00,VWS V14.01,2013-03-18 09:50:00,
2013-03-18 05:55:00,22.1,11.8,30.30,SE,133,0.0,0.0,64,0.00,,---,0.00,VWS V14.01,2013-03-18 09:55:00,
2013-03-18 06:00:00,22.1,11.8,30.30,SE,133,0.0,0.0,64,0.00,,---,0.00,VWS V14.01,2013-03-18 10:00:00,
2013-03-18 06:05:00,22.1,11.8,30.30,SE,133,0.0,0.0,64,0.00,,---,0.00,VWS V14.01,2013-03-18 10:05:00,
2013-03-18 06:10:00,22.3,12.0,30.30,SE,133,0.0,0.0,64,0.00,,---,0.00,VWS V14.01,2013-03-18 10:10:00,
2013-03-18 06:15:00,22.3,12.0,30.30,SE,134,0.0,0.0,64,0.00,,---,0.00,VWS V14.01,2013-03-18 10:15:00,
2013-03-18 06:20:00,22.3,12.0,30.30,SE,133,0.0,0.0,64,0.00,,---,0.00,VWS V14.01,2013-03-18 10:20:00,
2013-03-18 06:25:00,22.5,12.1,30.30,SE,134,0.0,0.0,64,0.00,,---,0.00,VWS V14.01,2013-03-18 10:25:00,
2013-03-18 06:30:00,22.5,12.1,30.30,SE,133,0.0,0.0,64,0.00,,---,0.00,VWS V14.01,2013-03-18 10:30:00,
2013-03-18 06:35:00,22.5,12.5,30.30,ESE,117,0.0,0.0,65,0.00,,---,0.00,VWS V14.01,2013-03-18 10:35:00,
2013-03-18 06:40:00,22.5,12.5,30.30,ESE,117,0.0,0.0,65,0.00,,---,0.00,VWS V14.01,2013-03-18 10:40:00,
2013-03-18 06:45:00,22.5,12.5,30.30,ESE,117,0.0,0.0,65,0.00,,---,0.00,VWS V14.01,2013-03-18 10:45:00,
2013-03-18 06:50:00,22.5,12.5,30.30,East,83,0.0,0.0,65,0.00,,---,0.00,VWS V14.01,2013-03-18 10:50:00,
2013-03-18 06:55:00,22.5,12.5,30.27,East,83,0.0,0.0,65,0.00,,---,0.00,VWS V14.01,2013-03-18 10:55:00,
2013-03-18 07:00:00,22.5,12.5,30.27,East,84,0.0,0.0,65,0.00,,---,0.00,VWS V14.01,2013-03-18 11:00:00,
2013-03-18 07:05:00,22.5,12.5,30.27,East,84,0.0,0.0,65,0.00,,---,0.00,VWS V14.01,2013-03-18 11:05:00,
2013-03-18 07:10:00,22.5,12.5,30.30,East,84,0.0,0.0,65,0.00,,---,0.00,VWS V14.01,2013-03-18 11:10:00,
2013-03-18 07:15:00,22.6,12.7,30.30,East,89,0.0,0.0,65,0.00,,---,0.00,VWS V14.01,2013-03-18 11:15:00,
2013-03-18 07:20:00,22.6,12.7,30.30,East,89,0.0,0.0,65,0.00,,---,0.00,VWS V14.01,2013-03-18 11:20:00,
2013-03-18 07:25:00,22.6,12.7,30.27,East,89,0.0,0.0,65,0.00,,---,0.00,VWS V14.01,2013-03-18 11:25:00,
2013-03-18 07:30:00,22.6,12.7,30.27,East,89,0.0,0.0,65,0.00,,---,0.00,VWS V14.01,2013-03-18 11:30:00,
2013-03-18 07:35:00,22.8,12.8,30.27,East,89,0.0,0.0,65,0.00,,---,0.00,VWS V14.01,2013-03-18 11:35:00,
2013-03-18 07:40:00,22.8,12.8,30.30,East,89,0.0,0.0,65,0.00,,---,0.00,VWS V14.01,2013-03-18 11:40:00,
2013-03-18 07:45:00,23.0,13.0,30.30,ENE,63,0.0,0.0,65,0.00,,---,0.00,VWS V14.01,2013-03-18 11:45:00,
2013-03-18 07:50:00,23.0,13.0,30.30,ENE,66,0.0,0.0,65,0.00,,---,0.00,VWS V14.01,2013-03-18 11:50:00,
2013-03-18 07:55:00,23.0,13.0,30.27,ENE,70,0.0,0.0,65,0.00,,---,0.00,VWS V14.01,2013-03-18 11:55:00,
2013-03-18 08:00:00,23.2,13.2,30.27,East,88,0.0,0.0,65,0.00,,---,0.00,VWS V14.01,2013-03-18 12:00:00,
2013-03-18 08:05:00,23.4,13.4,30.27,ESE,102,0.0,0.0,65,0.00,,---,0.00,VWS V14.01,2013-03-18 12:05:00,
2013-03-18 08:10:00,23.5,13.5,30.30,ESE,118,0.0,4.0,65,0.00,,---,0.00,VWS V14.01,2013-03-18 12:10:00,
2013-03-18 08:15:00,23.7,13.7,30.30,ESE,118,0.0,0.0,65,0.00,,---,0.00,VWS V14.01,2013-03-18 12:15:00,
2013-03-18 08:20:00,23.9,13.5,30.30,ESE,103,3.6,4.0,64,0.00,,---,0.00,VWS V14.01,2013-03-18 12:20:00,
2013-03-18 08:25:00,24.1,13.7,30.27,ESE,105,4.0,4.5,64,0.00,,---,0.00,VWS V14.01,2013-03-18 12:25:00,
2013-03-18 08:30:00,24.4,13.7,30.27,ESE,109,3.1,3.6,63,0.00,,---,0.00,VWS V14.01,2013-03-18 12:30:00,
2013-03-18 08:35:00,24.6,13.8,30.27,ESE,115,4.5,5.4,63,0.00,,---,0.00,VWS V14.01,2013-03-18 12:35:00,
2013-03-18 08:40:00,24.6,13.5,30.27,East,79,0.0,4.0,62,0.00,,---,0.00,VWS V14.01,2013-03-18 12:40:00,
2013-03-18 08:45:00,24.8,13.6,30.27,SE,144,4.9,6.7,62,0.00,,---,0.00,VWS V14.01,2013-03-18 12:45:00,
2013-03-18 08:50:00,25.0,13.8,30.27,ESE,109,0.0,4.5,62,0.00,,---,0.00,VWS V14.01,2013-03-18 12:50:00,
2013-03-18 08:55:00,25.0,13.8,30.27,SE,132,0.0,6.9,62,0.00,,---,0.00,VWS V14.01,2013-03-18 12:55:00,
2013-03-18 09:00:00,25.2,14.0,30.27,ESE,111,4.0,5.8,62,0.00,,---,0.00,VWS V14.01,2013-03-18 13:00:00,
2013-03-18 09:05:00,25.3,13.0,30.27,SE,138,3.1,4.5,59,0.00,,---,0.00,VWS V14.01,2013-03-18 13:05:00,
2013-03-18 09:10:00,25.5,13.2,30.27,ESE,104,5.4,6.9,59,0.00,,---,0.00,VWS V14.01,2013-03-18 13:10:00,
2013-03-18 09:15:00,25.5,12.4,30.27,ESE,119,3.6,4.5,57,0.00,,---,0.00,VWS V14.01,2013-03-18 13:15:00,
2013-03-18 09:20:00,25.7,12.6,30.27,ESE,118,4.5,5.8,57,0.00,,---,0.00,VWS V14.01,2013-03-18 13:20:00,
2013-03-18 09:25:00,25.7,12.2,30.27,ESE,111,3.6,8.7,56,0.00,,---,0.00,VWS V14.01,2013-03-18 13:25:00,
2013-03-18 09:30:00,25.9,12.4,30.27,SSE,148,3.6,6.9,56,0.00,,---,0.00,VWS V14.01,2013-03-18 13:30:00,
2013-03-18 09:35:00,26.2,12.7,30.27,SSE,156,4.9,7.4,56,0.00,,---,0.00,VWS V14.01,2013-03-18 13:35:00,
2013-03-18 09:40:00,26.4,12.0,30.27,ESE,113,7.4,8.7,54,0.00,,---,0.00,VWS V14.01,2013-03-18 13:40:00,
2013-03-18 09:45:00,26.4,12.0,30.27,SE,142,5.4,7.8,54,0.00,,---,0.00,VWS V14.01,2013-03-18 13:45:00,
2013-03-18 09:50:00,26.6,12.2,30.27,South,178,4.5,6.9,54,0.00,,---,0.00,VWS V14.01,2013-03-18 13:50:00,
2013-03-18 09:55:00,27.1,12.7,30.27,SE,133,6.7,7.8,54,0.00,,---,0.00,VWS V14.01,2013-03-18 13:55:00,
2013-03-18 10:00:00,27.3,12.9,30.27,SE,127,4.5,7.8,54,0.00,,---,0.00,VWS V14.01,2013-03-18 14:00:00,
2013-03-18 10:05:00,27.9,13.0,30.27,ESE,106,4.5,5.8,53,0.00,,---,0.00,VWS V14.01,2013-03-18 14:05:00,
2013-03-18 10:10:00,28.0,13.1,30.24,East,97,3.1,7.8,53,0.00,,---,0.00,VWS V14.01,2013-03-18 14:10:00,
2013-03-18 10:15:00,28.0,12.3,30.24,ESE,109,5.4,6.7,51,0.00,,---,0.00,VWS V14.01,2013-03-18 14:15:00,
2013-03-18 10:20:00,28.0,12.3,30.24,ESE,111,3.6,5.8,51,0.00,,---,0.00,VWS V14.01,2013-03-18 14:20:00,
2013-03-18 10:25:00,28.0,12.3,30.24,ESE,113,6.3,6.3,51,0.00,,---,0.00,VWS V14.01,2013-03-18 14:25:00,
2013-03-18 10:30:00,28.2,12.4,30.24,ESE,122,0.0,8.7,51,0.00,,---,0.00,VWS V14.01,2013-03-18 14:30:00,
2013-03-18 10:35:00,28.8,13.8,30.24,SSE,147,4.0,5.8,53,0.00,,---,0.00,VWS V14.01,2013-03-18 14:35:00,
2013-03-18 10:40:00,28.8,12.9,30.24,SSE,154,3.6,4.5,51,0.00,,---,0.00,VWS V14.01,2013-03-18 14:40:00,
2013-03-18 10:45:00,28.8,12.9,30.24,SSW,212,3.6,9.6,51,0.00,,---,0.00,VWS V14.01,2013-03-18 14:45:00,
2013-03-18 10:49:00,28.9,13.1,30.24,SE,138,6.3,11.0,51,0.00,,---,0.00,VWS V14.01,2013-03-18 14:49:00,
2013-03-18 10:54:00,28.6,12.8,30.24,South,177,6.9,7.4,51,0.00,,---,0.00,VWS V14.01,2013-03-18 14:54:00,
2013-03-18 10:59:00,28.6,12.8,30.24,East,80,5.4,7.4,51,0.00,,---,0.00,VWS V14.01,2013-03-18 14:59:00,
2013-03-18 11:04:00,28.8,12.9,30.24,East,100,3.6,6.3,51,0.00,,---,0.00,VWS V14.01,2013-03-18 15:04:00,
2013-03-18 11:09:00,28.9,13.1,30.24,ESE,121,3.1,6.3,51,0.00,,---,0.00,VWS V14.01,2013-03-18 15:09:00,
2013-03-18 11:14:00,28.9,13.1,30.24,SE,134,6.7,12.1,51,0.00,,---,0.00,VWS V14.01,2013-03-18 15:14:00,
2013-03-18 11:19:00,28.8,11.6,30.24,ESE,122,6.7,6.9,48,0.00,,---,0.00,VWS V14.01,2013-03-18 15:19:00,
2013-03-18 11:24:00,28.9,13.1,30.24,ESE,104,6.3,6.9,51,0.00,,---,0.00,VWS V14.01,2013-03-18 15:24:00,
2013-03-18 11:29:00,29.1,13.3,30.24,East,98,5.4,9.6,51,0.00,,---,0.00,VWS V14.01,2013-03-18 15:29:00,
2013-03-18 11:34:00,29.3,13.0,30.24,East,97,4.9,7.4,50,0.00,,---,0.00,VWS V14.01,2013-03-18 15:34:00,
2013-03-18 11:39:00,29.7,13.3,30.24,ESE,117,5.4,5.4,50,0.00,,---,0.00,VWS V14.01,2013-03-18 15:39:00,
2013-03-18 11:44:00,29.8,13.5,30.24,ESE,117,8.3,8.3,50,0.00,,---,0.00,VWS V14.01,2013-03-18 15:44:00,
2013-03-18 11:49:00,30.0,13.6,30.24,SE,134,0.0,0.0,50,0.00,,---,0.00,VWS V14.01,2013-03-18 15:49:00,
2013-03-18 11:54:00,30.4,14.0,30.21,East,101,6.3,6.3,50,0.00,,---,0.00,VWS V14.01,2013-03-18 15:54:00,
2013-03-18 11:59:00,30.4,14.0,30.21,South,189,3.1,4.9,50,0.00,,---,0.00,VWS V14.01,2013-03-18 15:59:00,
2013-03-18 12:04:00,30.2,13.8,30.21,SE,128,4.5,7.8,50,0.00,,---,0.00,VWS V14.01,2013-03-18 16:04:00,
2013-03-18 12:09:00,30.0,13.6,30.21,SE,125,4.9,8.7,50,0.00,,---,0.00,VWS V14.01,2013-03-18 16:09:00,
2013-03-18 12:14:00,29.8,14.8,30.21,SSE,162,0.0,6.3,53,0.00,,---,0.00,VWS V14.01,2013-03-18 16:14:00,
2013-03-18 12:19:00,29.7,15.5,30.21,SSE,152,2.7,6.9,55,0.00,,---,0.00,VWS V14.01,2013-03-18 16:19:00,
2013-03-18 12:24:00,29.3,16.4,30.21,ESE,111,4.0,4.0,58,0.00,,---,0.00,VWS V14.01,2013-03-18 16:24:00,
2013-03-18 12:29:00,28.8,17.0,30.21,SW,225,6.3,6.3,61,0.00,,---,0.00,VWS V14.01,2013-03-18 16:29:00,
2013-03-18 12:34:00,28.6,17.2,30.21,SE,124,8.7,8.7,62,0.00,,---,0.00,VWS V14.01,2013-03-18 16:34:00,
2013-03-18 12:39:00,28.4,17.4,30.21,SE,129,3.1,4.0,63,0.00,,---,0.00,VWS V14.01,2013-03-18 16:39:00,
2013-03-18 12:44:00,28.4,17.8,30.21,SE,131,6.9,6.9,64,0.00,,---,0.00,VWS V14.01,2013-03-18 16:44:00,
2013-03-18 12:49:00,28.8,18.1,30.21,SE,128,3.6,4.0,64,0.00,,---,0.00,VWS V14.01,2013-03-18 16:49:00,
2013-03-18 12:54:00,28.8,18.1,30.21,SE,132,0.0,5.8,64,0.00,,---,0.00,VWS V14.01,2013-03-18 16:54:00,
2013-03-18 12:59:00,28.8,18.1,30.21,SE,128,3.6,5.8,64,0.00,,---,0.00,VWS V14.01,2013-03-18 16:59:00,
2013-03-18 13:04:00,28.8,18.1,30.21,ESE,112,4.5,4.5,64,0.00,,---,0.00,VWS V14.01,2013-03-18 17:04:00,
2013-03-18 13:09:00,28.9,18.7,30.21,SE,135,2.7,6.9,65,0.00,,---,0.00,VWS V14.01,2013-03-18 17:09:00,
2013-03-18 13:14:00,28.9,18.3,30.21,SSE,147,3.6,5.8,64,0.00,,---,0.00,VWS V14.01,2013-03-18 17:14:00,
2013-03-18 13:19:00,28.9,17.9,30.21,SSE,153,4.5,7.8,63,0.00,,---,0.00,VWS V14.01,2013-03-18 17:19:00,
2013-03-18 13:24:00,28.9,17.9,30.21,East,90,5.4,6.9,63,0.00,,---,0.00,VWS V14.01,2013-03-18 17:24:00,
2013-03-18 13:29:00,29.1,18.1,30.21,ESE,107,4.5,4.9,63,0.00,,---,0.00,VWS V14.01,2013-03-18 17:29:00,
2013-03-18 13:34:00,29.3,17.9,30.21,ESE,108,6.3,6.3,62,0.00,,---,0.00,VWS V14.01,2013-03-18 17:34:00,
2013-03-18 13:39:00,29.5,17.7,30.18,SE,127,6.7,7.8,61,0.00,,---,0.00,VWS V14.01,2013-03-18 17:39:00,
2013-03-18 13:44:00,29.7,17.9,30.18,SE,136,3.6,5.4,61,0.00,,---,0.00,VWS V14.01,2013-03-18 17:44:00,
2013-03-18 13:49:00,29.8,18.0,30.18,ESE,119,5.4,5.4,61,0.00,,---,0.00,VWS V14.01,2013-03-18 17:49:00,
2013-03-18 13:54:00,30.0,18.2,30.18,SE,141,4.9,5.4,61,0.00,,---,0.00,VWS V14.01,2013-03-18 17:54:00,
2013-03-18 13:59:00,30.2,18.4,30.18,ESE,118,4.0,4.5,61,0.00,,---,0.00,VWS V14.01,2013-03-18 17:59:00,
2013-03-18 14:04:00,30.2,18.0,30.18,SE,146,2.7,5.8,60,0.00,,---,0.00,VWS V14.01,2013-03-18 18:04:00,
2013-03-18 14:09:00,30.2,16.0,30.18,SSE,167,2.7,4.5,55,0.00,,---,0.00,VWS V14.01,2013-03-18 18:09:00,
2013-03-18 14:14:00,30.4,16.2,30.18,ESE,118,4.5,6.7,55,0.00,,---,0.00,VWS V14.01,2013-03-18 18:14:00,
2013-03-18 14:19:00,30.4,17.4,30.18,South,187,4.0,5.4,58,0.00,,---,0.00,VWS V14.01,2013-03-18 18:19:00,
2013-03-18 14:24:00,30.6,17.6,30.15,SSW,206,3.1,3.1,58,0.00,,---,0.00,VWS V14.01,2013-03-18 18:24:00,
2013-03-18 14:29:00,30.6,16.3,30.15,SE,143,0.0,3.6,55,0.00,,---,0.00,VWS V14.01,2013-03-18 18:29:00,
2013-03-18 14:34:00,30.6,16.3,30.15,SE,130,4.5,6.3,55,0.00,,---,0.00,VWS V14.01,2013-03-18 18:34:00,
2013-03-18 14:39:00,30.6,16.3,30.12,SE,143,4.9,8.3,55,0.00,,---,0.00,VWS V14.01,2013-03-18 18:39:00,
2013-03-18 14:44:00,30.6,16.3,30.12,SE,135,6.7,9.2,55,0.00,,---,0.00,VWS V14.01,2013-03-18 18:44:00,
2013-03-18 14:49:00,30.7,16.5,30.12,East,98,2.7,6.3,55,0.00,,---,0.00,VWS V14.01,2013-03-18 18:49:00,
2013-03-18 14:54:00,30.7,16.5,30.12,SW,219,3.6,6.9,55,0.00,,---,0.00,VWS V14.01,2013-03-18 18:54:00,
2013-03-18 14:59:00,30.7,15.6,30.12,SSE,151,5.8,6.3,53,0.00,,---,0.00,VWS V14.01,2013-03-18 18:59:00,
2013-03-18 15:04:00,30.7,15.6,30.12,SE,132,4.5,5.8,53,0.00,,---,0.00,VWS V14.01,2013-03-18 19:04:00,
2013-03-18 15:09:00,30.7,16.5,30.12,SSE,166,3.6,5.8,55,0.00,,---,0.00,VWS V14.01,2013-03-18 19:09:00,
2013-03-18 15:14:00,30.6,16.3,30.12,ESE,108,0.0,3.6,55,0.00,,---,0.00,VWS V14.01,2013-03-18 19:14:00,
2013-03-18 15:19:00,30.4,18.2,30.12,ESE,108,7.8,9.6,60,0.00,,---,0.00,VWS V14.01,2013-03-18 19:19:00,
2013-03-18 15:24:00,29.8,18.4,30.12,South,188,5.4,7.8,62,0.00,,---,0.00,VWS V14.01,2013-03-18 19:24:00,
2013-03-18 15:29:00,29.3,19.0,30.12,ESE,104,0.0,4.9,65,0.00,,---,0.00,VWS V14.01,2013-03-18 19:29:00,
2013-03-18 15:34:00,29.1,19.2,30.12,East,89,4.5,5.4,66,0.00,,---,0.00,VWS V14.01,2013-03-18 19:34:00,
2013-03-18 15:39:00,28.9,20.4,30.12,SW,223,4.0,4.5,70,0.00,,---,0.00,VWS V14.01,2013-03-18 19:39:00,
2013-03-18 15:44:00,28.8,20.9,30.12,SSE,165,3.6,4.0,72,0.00,,---,0.00,VWS V14.01,2013-03-18 19:44:00,
2013-03-18 15:49:00,28.6,21.0,30.12,SSE,147,0.0,0.0,73,0.00,,---,0.00,VWS V14.01,2013-03-18 19:49:00,
2013-03-18 15:54:00,28.4,21.2,30.12,SSE,163,3.1,3.6,74,0.00,,---,0.00,VWS V14.01,2013-03-18 19:54:00,
2013-03-18 15:59:00,28.4,21.5,30.12,East,96,0.0,4.0,75,0.00,,---,0.00,VWS V14.01,2013-03-18 19:59:00,
2013-03-18 16:04:00,28.2,21.6,30.12,ESE,109,4.5,4.5,76,0.00,,---,0.00,VWS V14.01,2013-03-18 20:04:00,
2013-03-18 16:09:00,28.2,22.0,30.09,ESE,107,0.0,3.6,77,0.00,,---,0.00,VWS V14.01,2013-03-18 20:09:00,
2013-03-18 16:14:00,28.2,22.2,30.09,SSE,153,0.0,0.0,78,0.00,,---,0.00,VWS V14.01,2013-03-18 20:14:00,
2013-03-18 16:19:00,28.0,22.7,30.09,ESE,102,0.0,2.7,80,0.00,,---,0.00,VWS V14.01,2013-03-18 20:19:00,
2013-03-18 16:24:00,28.0,23.0,30.09,ESE,111,0.0,3.1,81,0.00,,---,0.00,VWS V14.01,2013-03-18 20:24:00,
2013-03-18 16:29:00,28.2,23.1,30.09,SE,139,0.0,3.6,81,0.04,,---,0.04,VWS V14.01,2013-03-18 20:29:00,
2013-03-18 16:34:00,28.4,23.3,30.09,SE,131,0.0,0.0,81,0.04,,---,0.04,VWS V14.01,2013-03-18 20:34:00,
2013-03-18 16:39:00,28.4,23.6,30.09,South,179,0.0,0.0,82,0.04,,---,0.04,VWS V14.01,2013-03-18 20:39:00,
2013-03-18 16:44:00,28.6,23.8,30.09,SSE,160,0.0,3.6,82,0.04,,---,0.04,VWS V14.01,2013-03-18 20:44:00,
2013-03-18 16:49:00,28.8,24.0,30.09,East,100,0.0,0.0,82,0.04,,---,0.04,VWS V14.01,2013-03-18 20:49:00,
2013-03-18 16:54:00,28.8,24.0,30.09,ESE,119,0.0,0.0,82,0.04,,---,0.04,VWS V14.01,2013-03-18 20:54:00,
2013-03-18 16:59:00,28.8,24.0,30.09,South,188,0.0,0.0,82,0.08,,---,0.08,VWS V14.01,2013-03-18 20:59:00,
2013-03-18 17:04:00,28.8,24.3,30.09,South,188,0.0,0.0,83,0.08,,---,0.08,VWS V14.01,2013-03-18 21:04:00,
2013-03-18 17:09:00,28.8,24.0,30.06,South,190,0.0,0.0,82,0.08,,---,0.08,VWS V14.01,2013-03-18 21:09:00,
2013-03-18 17:14:00,28.8,24.0,30.06,South,189,0.0,0.0,82,0.08,,---,0.08,VWS V14.01,2013-03-18 21:14:00,
2013-03-18 17:19:00,28.9,24.1,30.06,South,186,0.0,0.0,82,0.08,,---,0.08,VWS V14.01,2013-03-18 21:19:00,
2013-03-18 17:24:00,28.9,24.1,30.06,South,186,0.0,0.0,82,0.12,,---,0.12,VWS V14.01,2013-03-18 21:24:00,
2013-03-18 17:29:00,28.9,24.1,30.06,ESE,110,0.0,0.0,82,0.08,,---,0.12,VWS V14.01,2013-03-18 21:29:00,
2013-03-18 17:34:00,28.9,24.4,30.06,ESE,110,0.0,0.0,83,0.08,,---,0.12,VWS V14.01,2013-03-18 21:34:00,
2013-03-18 17:39:00,28.8,24.3,30.06,ESE,110,0.0,0.0,83,0.08,,---,0.12,VWS V14.01,2013-03-18 21:39:00,
2013-03-18 17:44:00,28.8,24.5,30.06,ESE,123,0.0,0.0,84,0.08,,---,0.12,VWS V14.01,2013-03-18 21:44:00,
2013-03-18 17:49:00,28.8,24.5,30.06,ESE,105,0.0,4.0,84,0.08,,---,0.12,VWS V14.01,2013-03-18 21:49:00,
2013-03-18 17:54:00,28.8,24.5,30.06,ESE,105,0.0,0.0,84,0.08,,---,0.12,VWS V14.01,2013-03-18 21:54:00,
2013-03-18 17:59:00,28.9,24.7,30.06,ESE,105,0.0,0.0,84,0.04,,---,0.12,VWS V14.01,2013-03-18 21:59:00,
2013-03-18 18:04:00,28.9,24.7,30.06,ESE,105,0.0,0.0,84,0.04,,---,0.12,VWS V14.01,2013-03-18 22:04:00,
2013-03-18 18:09:00,28.9,24.7,30.03,ESE,117,0.0,0.0,84,0.08,,---,0.16,VWS V14.01,2013-03-18 22:09:00,
2013-03-18 18:14:00,28.9,24.4,30.03,SE,127,0.0,0.0,83,0.08,,---,0.16,VWS V14.01,2013-03-18 22:14:00,
2013-03-18 18:19:00,28.9,24.7,30.03,SE,127,0.0,0.0,84,0.08,,---,0.16,VWS V14.01,2013-03-18 22:19:00,
2013-03-18 18:24:00,28.9,24.7,30.03,ESE,108,0.0,3.1,84,0.04,,---,0.16,VWS V14.01,2013-03-18 22:24:00,
2013-03-18 18:29:00,28.9,24.7,30.03,ESE,111,0.0,0.0,84,0.04,,---,0.16,VWS V14.01,2013-03-18 22:29:00,
2013-03-18 18:34:00,28.9,24.7,30.03,SE,133,0.0,2.7,84,0.04,,---,0.16,VWS V14.01,2013-03-18 22:34:00,
2013-03-18 18:39:00,28.9,25.0,30.03,SE,136,0.0,3.6,85,0.04,,---,0.16,VWS V14.01,2013-03-18 22:39:00,
2013-03-18 18:44:00,28.9,25.0,30.03,SE,136,0.0,3.6,85,0.04,,---,0.16,VWS V14.01,2013-03-18 22:44:00,
2013-03-18 18:49:00,28.9,25.0,30.03,SE,136,0.0,0.0,85,0.04,,---,0.16,VWS V14.01,2013-03-18 22:49:00,
2013-03-18 18:54:00,28.8,25.1,30.03,SE,136,0.0,0.0,86,0.04,,---,0.16,VWS V14.01,2013-03-18 22:54:00,
2013-03-18 18:59:00,28.8,25.1,30.03,ESE,107,0.0,0.0,86,0.04,,---,0.16,VWS V14.01,2013-03-18 22:59:00,
2013-03-18 19:04:00,28.8,25.4,30.03,SSE,156,0.0,0.0,87,0.04,,---,0.16,VWS V14.01,2013-03-18 23:04:00,
2013-03-18 19:09:00,28.8,25.4,30.03,SSE,156,0.0,0.0,87,0.04,,---,0.20,VWS V14.01,2013-03-18 23:09:00,
2013-03-18 19:14:00,28.8,25.4,30.03,SSE,151,0.0,0.0,87,0.04,,---,0.20,VWS V14.01,2013-03-18 23:14:00,
2013-03-18 19:19:00,28.8,25.7,30.03,ESE,115,0.0,0.0,88,0.04,,---,0.20,VWS V14.01,2013-03-18 23:19:00,
2013-03-18 19:24:00,28.8,25.7,30.01,ESE,117,2.7,3.1,88,0.04,,---,0.20,VWS V14.01,2013-03-18 23:24:00,
2013-03-18 19:29:00,28.8,25.7,30.01,ESE,120,0.0,0.0,88,0.04,,---,0.20,VWS V14.01,2013-03-18 23:29:00,
2013-03-18 19:34:00,28.8,25.7,30.01,SSE,147,0.0,0.0,88,0.04,,---,0.20,VWS V14.01,2013-03-18 23:34:00,
2013-03-18 19:39:00,28.8,25.7,30.01,SSE,147,0.0,0.0,88,0.04,,---,0.20,VWS V14.01,2013-03-18 23:39:00,
2013-03-18 19:44:00,28.9,25.8,30.01,East,87,0.0,0.0,88,0.04,,---,0.20,VWS V14.01,2013-03-18 23:44:00,
2013-03-18 19:49:00,28.9,26.1,30.01,ESE,122,0.0,0.0,89,0.04,,---,0.20,VWS V14.01,2013-03-18 23:49:00,
2013-03-18 19:54:00,28.9,26.1,30.01,SE,127,0.0,0.0,89,0.04,,---,0.20,VWS V14.01,2013-03-18 23:54:00,
2013-03-18 19:59:00,29.1,26.3,30.01,East,95,4.0,4.0,89,0.04,,---,0.20,VWS V14.01,2013-03-18 23:59:00,
2013-03-18 20:04:00,29.1,26.6,30.01,ESE,113,0.0,0.0,90,0.04,,---,0.20,VWS V14.01,2013-03-19 00:04:00,
2013-03-18 20:09:00,29.1,26.6,30.01,SE,142,0.0,2.7,90,0.00,,---,0.20,VWS V14.01,2013-03-19 00:09:00,
2013-03-18 20:14:00,29.1,26.6,30.01,ESE,104,4.0,4.0,90,0.00,,---,0.20,VWS V14.01,2013-03-19 00:14:00,
2013-03-18 20:19:00,29.1,26.8,30.01,ESE,112,4.0,4.0,91,0.00,,---,0.20,VWS V14.01,2013-03-19 00:19:00,
2013-03-18 20:24:00,29.1,26.8,30.01,ESE,104,0.0,0.0,91,0.00,,---,0.20,VWS V14.01,2013-03-19 00:24:00,
2013-03-18 20:29:00,29.1,26.8,30.01,SE,124,0.0,0.0,91,0.00,,---,0.20,VWS V14.01,2013-03-19 00:29:00,
2013-03-18 20:34:00,29.1,27.1,30.01,ESE,115,0.0,0.0,92,0.00,,---,0.20,VWS V14.01,2013-03-19 00:34:00,
2013-03-18 20:39:00,29.1,27.1,30.01,ESE,114,0.0,0.0,92,0.00,,---,0.20,VWS V14.01,2013-03-19 00:39:00,
2013-03-18 20:44:00,29.1,27.1,30.01,SE,132,0.0,4.9,92,0.00,,---,0.20,VWS V14.01,2013-03-19 00:44:00,
2013-03-18 20:49:00,29.3,27.0,30.01,SE,132,0.0,3.6,91,0.00,,---,0.20,VWS V14.01,2013-03-19 00:49:00,
2013-03-18 20:54:00,29.3,27.3,30.01,East,95,0.0,0.0,92,0.00,,---,0.20,VWS V14.01,2013-03-19 00:54:00,
2013-03-18 20:59:00,29.3,27.3,30.01,East,98,0.0,0.0,92,0.08,,---,0.28,VWS V14.01,2013-03-19 00:59:00,
2013-03-18 21:04:00,29.1,27.1,30.01,ESE,111,0.0,0.0,92,0.08,,---,0.28,VWS V14.01,2013-03-19 01:04:00,
2013-03-18 21:09:00,29.1,27.1,30.01,ESE,111,0.0,0.0,92,0.08,,---,0.28,VWS V14.01,2013-03-19 01:09:00,
2013-03-18 21:14:00,29.1,27.1,30.01,ESE,111,0.0,0.0,92,0.08,,---,0.28,VWS V14.01,2013-03-19 01:14:00,
2013-03-18 21:19:00,29.1,27.1,30.01,ESE,111,0.0,0.0,92,0.08,,---,0.28,VWS V14.01,2013-03-19 01:19:00,
2013-03-18 21:24:00,29.1,27.1,30.01,ESE,111,0.0,0.0,92,0.08,,---,0.28,VWS V14.01,2013-03-19 01:24:00,
2013-03-18 21:29:00,29.1,27.1,30.01,ESE,111,0.0,0.0,92,0.08,,---,0.28,VWS V14.01,2013-03-19 01:29:00,
2013-03-18 21:34:00,29.1,27.1,30.01,ESE,111,2.7,2.7,92,0.08,,---,0.28,VWS V14.01,2013-03-19 01:34:00,
2013-03-18 21:39:00,29.1,27.1,29.98,SSE,149,4.0,4.0,92,0.08,,---,0.28,VWS V14.01,2013-03-19 01:39:00,
2013-03-18 21:44:00,29.1,27.4,29.98,East,95,0.0,0.0,93,0.08,,---,0.28,VWS V14.01,2013-03-19 01:44:00,
2013-03-18 21:49:00,29.1,27.4,29.98,ESE,109,0.0,0.0,93,0.08,,---,0.28,VWS V14.01,2013-03-19 01:49:00,
2013-03-18 21:54:00,29.1,27.6,29.98,ESE,109,0.0,0.0,94,0.08,,---,0.28,VWS V14.01,2013-03-19 01:54:00,
2013-03-18 21:59:00,29.1,27.4,29.98,ESE,111,0.0,0.0,93,0.00,,---,0.28,VWS V14.01,2013-03-19 01:59:00,
2013-03-18 22:04:00,29.1,27.4,29.98,ESE,114,0.0,0.0,93,0.00,,---,0.28,VWS V14.01,2013-03-19 02:04:00,
2013-03-18 22:09:00,29.1,27.6,29.98,ESE,114,0.0,0.0,94,0.00,,---,0.28,VWS V14.01,2013-03-19 02:09:00,
2013-03-18 22:14:00,29.1,27.6,29.98,ESE,114,0.0,0.0,94,0.00,,---,0.28,VWS V14.01,2013-03-19 02:14:00,
2013-03-18 22:19:00,28.9,27.4,29.98,ESE,114,0.0,0.0,94,0.00,,---,0.28,VWS V14.01,2013-03-19 02:19:00,
2013-03-18 22:24:00,28.9,27.4,29.98,ESE,113,0.0,0.0,94,0.00,,---,0.28,VWS V14.01,2013-03-19 02:24:00,
2013-03-18 22:29:00,28.9,27.7,29.98,ESE,108,0.0,0.0,95,0.04,,---,0.31,VWS V14.01,2013-03-19 02:29:00,
2013-03-18 22:34:00,28.9,27.7,29.98,ESE,107,0.0,0.0,95,0.04,,---,0.31,VWS V14.01,2013-03-19 02:34:00,
2013-03-18 22:39:00,28.9,27.7,29.95,ESE,107,0.0,0.0,95,0.04,,---,0.31,VWS V14.01,2013-03-19 02:39:00,
2013-03-18 22:44:00,28.9,27.7,29.95,SE,124,0.0,0.0,95,0.04,,---,0.31,VWS V14.01,2013-03-19 02:44:00,
2013-03-18 22:49:00,28.9,27.7,29.95,SSE,157,0.0,2.7,95,0.04,,---,0.31,VWS V14.01,2013-03-19 02:49:00,
2013-03-18 22:54:00,28.9,27.7,29.95,ESE,107,4.0,4.0,95,0.04,,---,0.31,VWS V14.01,2013-03-19 02:54:00,
2013-03-18 22:59:00,29.1,27.9,29.95,ESE,119,2.7,3.6,95,0.04,,---,0.31,VWS V14.01,2013-03-19 02:59:00,
2013-03-18 23:04:00,28.9,27.9,29.95,ESE,117,0.0,0.0,96,0.04,,---,0.31,VWS V14.01,2013-03-19 03:04:00,
2013-03-18 23:09:00,29.1,28.1,29.92,East,98,0.0,3.1,96,0.04,,---,0.31,VWS V14.01,2013-03-19 03:09:00,
2013-03-18 23:14:00,29.1,28.1,29.92,ESE,118,4.0,4.0,96,0.04,,---,0.31,VWS V14.01,2013-03-19 03:14:00,
2013-03-18 23:19:00,29.3,28.3,29.92,ESE,107,0.0,4.9,96,0.04,,---,0.31,VWS V14.01,2013-03-19 03:19:00,
2013-03-18 23:24:00,29.3,28.3,29.92,SE,132,0.0,0.0,96,0.04,,---,0.31,VWS V14.01,2013-03-19 03:24:00,
2013-03-18 23:29:00,29.5,28.5,29.92,SE,132,0.0,0.0,96,0.04,,---,0.31,VWS V14.01,2013-03-19 03:29:00,
2013-03-18 23:34:00,29.5,28.5,29.92,East,94,0.0,0.0,96,0.00,,---,0.31,VWS V14.01,2013-03-19 03:34:00,
2013-03-18 23:39:00,29.5,28.5,29.92,East,94,0.0,0.0,96,0.00,,---,0.31,VWS V14.01,2013-03-19 03:39:00,
2013-03-18 23:44:00,29.7,28.7,29.92,East,94,0.0,0.0,96,0.00,,---,0.31,VWS V14.01,2013-03-19 03:44:00,
2013-03-18 23:49:00,29.7,28.7,29.92,East,93,0.0,0.0,96,0.00,,---,0.31,VWS V14.01,2013-03-19 03:49:00,
2013-03-18 23:54:00,29.7,28.7,29.92,East,93,0.0,0.0,96,0.00,,---,0.31,VWS V14.01,2013-03-19 03:54:00,
2013-03-18 23:59:00,29.8,28.8,29.92,East,93,0.0,0.0,96,0.00,,---,0.31,VWS V14.01,2013-03-19 03:59:00,